| Date | Time | Temp. (oF) | Dew Point (oF) | Rel. Hum. (%) | Press. (in.) | Wind Dir. | Wind Speed (mph) | Hourly Rainfall (in.) |
|
|---|---|---|---|---|---|---|---|---|---|
| 1 | 04/04 | 00:00 | 58 | 55 | 90 | 29.59 | S | 0 | 0.00 |
| 2 | 04/03 | 23:00 | 58 | 55 | 91 | 29.63 | S | 0 | 0.02 |
| 3 | 04/03 | 22:00 | 59 | 56 | 92 | 29.69 | SSW | 3 | 0.06 |
| 4 | 04/03 | 21:00 | 61 | 58 | 91 | 29.69 | WNW | 0 | 0.00 |
| 5 | 04/03 | 20:00 | 61 | 58 | 90 | 29.70 | SSW | 2 | 0.00 |
| 6 | 04/03 | 19:00 | 62 | 58 | 88 | 29.71 | SSW | 2 | 0.00 |
| 7 | 04/03 | 18:00 | 63 | 59 | 87 | 29.73 | SW | 4 | 0.00 |
| 8 | 04/03 | 17:00 | 64 | 59 | 84 | 29.74 | SSW | 4 | 0.01 |
| 9 | 04/03 | 16:00 | 64 | 57 | 80 | 29.75 | S | 8 | 0.00 |
| 10 | 04/03 | 15:00 | 66 | 58 | 77 | 29.76 | S | 9 | 0.00 |
| 11 | 04/03 | 14:00 | 64 | 58 | 83 | 29.79 | S | 8 | 0.00 |
| 12 | 04/03 | 13:00 | 61 | 58 | 90 | 29.82 | SSE | 7 | 0.00 |
| 13 | 04/03 | 12:00 | 60 | 57 | 92 | 29.82 | S | 4 | 0.00 |
| 14 | 04/03 | 11:00 | 58 | 55 | 92 | 29.85 | S | 8 | 0.02 |
| 15 | 04/03 | 10:00 | 58 | 55 | 92 | 29.85 | S | 8 | 0.01 |
| 16 | 04/03 | 09:00 | 58 | 54 | 88 | 29.85 | S | 9 | 0.00 |
| 17 | 04/03 | 08:00 | 58 | 53 | 84 | 29.84 | SSE | 5 | 0.01 |
| 18 | 04/03 | 07:00 | 60 | 50 | 72 | 29.84 | SSW | 6 | 0.00 |
| 19 | 04/03 | 06:00 | 59 | 50 | 74 | 29.81 | S | 4 | 0.00 |
| 20 | 04/03 | 05:00 | 60 | 49 | 69 | 29.82 | SW | 1 | 0.00 |
| 21 | 04/03 | 04:00 | 60 | 48 | 66 | 29.82 | SSW | 4 | 0.00 |
| 22 | 04/03 | 03:00 | 58 | 43 | 58 | 29.84 | S | 7 | 0.00 |
| 23 | 04/03 | 02:00 | 59 | 41 | 53 | 29.85 | S | 8 | 0.00 |
| 24 | 04/03 | 01:00 | 59 | 39 | 49 | 29.86 | SSW | 3 | 0.00 |